Go Pro

Vanguard Russell 1000 Growth ETF (VONG) Institutional Ownership

Vanguard Russell 1000 Growth ETF logo
$127.07 +1.64 (+1.31%)
As of 04:00 PM Eastern

Institutional Ownership Changes (13F Filings) for Vanguard Russell 1000 Growth ETF (NASDAQ:VONG)

Number of
Institutional Buyers
(last 12 months)
523
Total
Institutional Inflows
(last 12 months)
$7.01B
Number of
Institutional Sellers
(last 12 months)
327
Total
Institutional Outflows
(last 12 months)
$1.34B
Get VONG Insider Trade Alerts

Want to know when executives and insiders are buying or selling Vanguard Russell 1000 Growth ETF stock? Sign up for InsiderTrades.com's daily newsletter to get the latest insider transactions delivered to your inbox daily.

SMS is currently available in Australia, Belgium, Canada, France, Germany, Ireland, Italy, New Zealand, the Netherlands, Singapore, South Africa, Spain, Switzerland, the United Kingdom, and the United States. By entering your phone number and clicking the sign-up button, you agree to receive periodic text messages from MarketBeat at the phone number you submitted, including texts that may be sent using an automatic telephone dialing system. Message and data rates may apply. Message frequency will vary. Messages will consist of stock alerts, news stories, and partner advertisements/offers. Consent is not a condition of the purchase of any goods or services. Text HELP for help/customer support. Unsubscribe at any time by replying "STOP" to any text message that you receive from MarketBeat or by visiting our mailing preferences page. Read our full terms of service and privacy policy.
Skip Chart & View Institutional Buying and Selling Data

VONG Institutional Buying and Selling by Quarter

Vanguard Russell 1000 Growth ETF Major Shareholders & Ownership History

Reporting DateMajor Shareholder NameShares HeldMarket Value% of PortfolioQuarterly Change in SharesOwnership in CompanyDetails
9/2/2026Kinetic Wealth Investment Advisors LLC409,654$52.36M24.6%N/A0.117%
9/2/2026Range Advisory LLC6,835$874K0.1%N/A0.002%
9/2/2026 Citadel Advisors LLC1,987$254K0.0%N/A0.001%
8/27/2026 Corient Private Wealth LP843,403$107.80M0.1%-7.1%0.240%
8/27/2026 Tucker Asset Management LLC17,916$2.29M0.6%+2.4%0.005%
8/23/2026 Ameritas Advisory Services LLC21,687$2.77M0.1%N/A0.006%
8/23/2026 Guardian Wealth Advisors LLC NC53,629$6.85M0.4%+2.0%0.015%
8/23/2026 Wedmont Private Capital19,956$2.55M0.1%-2.3%0.006%
8/23/2026 Yarger Wealth Strategies LLC149,434$19.06M6.8%+0.9%0.043%
8/23/2026 Operose Advisors LLC26,010$3.32M0.6%-0.6%0.007%
8/23/2026 HB Wealth Management LLC169,616$21.68M0.1%-0.7%0.048%
8/23/2026 Angeles Wealth Management LLC1,819$232K0.0%N/A0.001%
8/22/2026 Gainline Financial Partners LLC37,726$4.82M4.5%N/A0.011%
8/22/2026 Strive Financial Group LLC233$30K0.0%N/A0.000%
8/22/2026 MOR Wealth Management LLC3,595$459K0.2%-5.7%0.001%
8/22/2026 TD Waterhouse Canada Inc.28,171$3.56M0.0%-32.1%0.008%
8/22/2026 Premier Path Wealth Partners LLC1,694$217K0.0%N/A0.000%
8/22/2026 United Community Bank3,304$422K0.1%-22.7%0.001%
8/22/2026 Concurrent Investment Advisors LLC57,929$7.40M0.1%+363.9%0.016%
8/21/2026 Andina Capital Management LLC13,893$1.78M2.9%-55.4%0.004%
8/21/2026 Rodgers & Associates LTD63,242$8.08M0.6%+0.5%0.018%
8/21/2026 Continuum Advisory LLC44,929$5.74M0.5%-0.5%0.013%
8/21/2026 Orion Capital Management LLC2,081$266K0.1%+22.7%0.001%
8/21/2026 Firestone Capital Management1,777$227K0.0%N/A0.001%
8/21/2026 XML Financial LLC43,164$5.52M0.4%+19.1%0.012%
8/21/2026 Symphony Financial Ltd. Co.1,697$215K0.0%N/A0.000%
8/21/2026 Chesapeake Wealth Management1,635$209K0.1%N/A0.000%
8/21/2026 Keeler Thomas Management LLC6,310$806K0.3%N/A0.002%
8/21/2026 Legacy Financial Advisors Inc.37,902$4.84M0.6%-3.0%0.011%
8/20/2026 Rehmann Capital Advisory Group8,830$1.13M0.0%-4.4%0.003%
8/20/2026 Wedbush Securities Inc.9,591$1.17M0.0%-84.7%0.003%
8/20/2026 Cullinan Associates Inc.6,401$1.18M0.1%+135.6%0.002%
8/7/2026 Trust Co. of Vermont1,601$205K0.0%N/A0.000%
7/10/2026 Investors Research Corp79,364$10.14M1.8%+0.6%0.023%
7/10/2026 William Mack & Associates Inc.2,932$375K0.1%N/A0.001%
7/10/2026 Highland Financial Advisors LLC299,639$38.30M8.5%+21.4%0.085%
7/10/2026 Perkins Coie Trust Co206,319$26.37M4.4%+1.9%0.059%
7/10/2026 Fulton Bank N.A.17,421$2.23M0.1%+5.0%0.005%
7/10/2026 Wealthcare Advisory Partners LLC31,036$3.97M0.1%-5.8%0.009%
7/9/2026 Sapient Capital LLC44,647$5.71M0.1%+9.6%0.013%
Trump's New Dollar (Ad)

Porter Stansberry says President Trump has signed an executive order initiating what he calls a full U.S. dollar reset - and most Americans don't know it's happening. The last time America underwent a monetary shift like this, under Nixon in the 1970s, it minted an average of 1,300 new millionaires a day for over half a century. Stansberry has released a new documentary naming the assets he believes are positioned to surge as a result.tc pixel

Watch the free briefing and see the three steps to prepare today
7/9/2026 World Equity Group Inc.5,673$725K0.2%-3.9%0.002%
7/9/2026 Next Level Private LLC15,742$2.01M0.4%-4.0%0.004%
7/9/2026 Focus Financial Network Inc.32,509$4.16M0.1%+3.4%0.009%
7/9/2026 Allied Private Wealth LLC612$77K0.0%N/A0.000%
7/9/2026 Sax Wealth Advisors LLC4,392$561K0.0%+21.1%0.001%
7/9/2026 Crumly & Associates Inc.42,603$5.45M1.0%-12.1%0.012%
7/9/2026 Flaharty Asset Management LLC3,917$489K0.7%-25.2%0.001%
7/8/2026 Trust Point Inc.4,920$629K0.1%-10.3%0.001%
7/8/2026 Elevation Wealth Partners LLC10,946$1.40M0.4%-2.2%0.003%
7/8/2026 Apella Capital LLC402,893$50.33M0.7%+13.3%0.115%
7/8/2026 Evanson Financial LLC2,462$315K0.0%N/A0.001%
7/7/2026 180 Wealth Advisors LLC1,810$231K0.0%N/A0.001%
7/7/2026 Balefire LLC2,934$375K0.1%+44.5%0.001%
7/7/2026 Avior Wealth Management LLC19,949$2.55M0.1%-3.9%0.006%
7/7/2026 Arlington Trust Co LLC1,140$146K0.0%N/A0.000%
7/7/2026 CoreCap Advisors LLC7,156$915K0.0%+4.6%0.002%
7/6/2026 Trilogy Capital Inc.14,268$1.82M0.1%+23.0%0.004%
7/1/2026 Eastern Bank3,309$423K0.0%+72.8%0.001%
6/23/2026 Ballast Advisors LLC379$42K0.0%N/A0.000%
6/16/2026 Steelhead Wealth Management LLC3,626$397K0.2%N/A0.001%
6/3/2026 Wealthquest Corp552,802$60.64M4.3%-5.1%0.162%
6/3/2026 Parallel Advisors LLC8,932$980K0.0%+20.6%0.003%
6/3/2026 NewEdge Advisors LLC330,187$36.22M0.1%-6.8%0.097%
6/1/2026 Flagship Wealth Advisors LLC2,495$272K0.1%-90.4%0.001%
6/1/2026 Integrated Investment Consultants LLC132,198$14.50M3.1%+8.5%0.039%
5/28/2026 Cozad Asset Management Inc.50,927$5.59M0.4%+3.5%0.015%
5/27/2026 Westshore Wealth LLC31,016$3.40M1.2%+12.3%0.009%
5/26/2026 Glenmede Trust Co. NA189,170$20.75M0.1%-15.2%0.055%
5/22/2026 Verus Capital Partners LLC32,929$3.61M0.2%-29.1%0.010%
5/20/2026 TrueWealth Financial Partners3,237$355K0.1%N/A0.001%
5/19/2026 Western Wealth Management LLC26,265$2.88M0.1%+0.4%0.008%
5/19/2026McIlrath & Eck LLC771$85K0.0%+37.4%0.000%
5/19/2026 Royal Fund Management LLC93,497$11.33M1.1%+11.2%0.027%
5/19/2026 Bank of America Corp DE76,119,779$8.35B0.6%+48.5%22.319%
5/19/2026 Centaurus Financial Inc.5,296$581K0.0%-10.3%0.002%
5/19/2026 Arkadios Wealth Advisors11,642$1.28M0.0%-12.0%0.003%
5/19/2026 IFS Group LLC9,656$1.06M0.9%N/A0.003%
5/18/2026 EverSource Wealth Advisors LLC3,458$379K0.0%+25.8%0.001%
5/18/2026 Royal Bank of Canada1,288,656$141.35M0.0%+17.7%0.378%
5/18/2026 Evercore Wealth Management LLC1,986$218K0.0%-5.5%0.001%
5/16/2026 Quantinno Capital Management LP129,083$14.16M0.0%-1.2%0.038%
5/15/2026 Gateway Wealth Partners LLC6,980$766K0.0%N/A0.002%
5/15/2026 Waverly Advisors LLC5,383$590K0.0%+59.2%0.002%
5/14/2026 Renaissance Technologies LLC79,700$8.74M0.0%N/A0.023%
5/14/2026 Gamco Investors INC. ET AL18,301$2.01M0.0%-2.2%0.005%
5/14/2026 Hilltop Holdings Inc.2,657$291K0.0%-88.8%0.001%
5/14/2026 Modern Wealth Management LLC2,676$296K0.0%-17.9%0.001%
5/14/2026 Lido Advisors LLC330,905$36.30M0.1%-7.5%0.097%
5/13/2026 Cetera Investment Advisers9,492,332$1.04B1.1%-7.0%2.783%
5/13/2026 Wealthspire Retirement LLC339,365$37.23M2.2%+3.0%0.100%
A letter from Shannon Stansberry (Ad)

Porter Stansberry nearly canceled the entire project. When he first saw the claimed returns - only one down year in nearly two decades and total gains of almost 2,000% - his immediate reaction was disbelief. It took a trusted friend's personal vouching for Emmet Savage and a face-to-face trip to Ireland to change his mind. The full documentary, Investigating Project Prophet, is now live.tc pixel

Watch the full story and see the verified track record for yourself
5/13/2026 Measured Wealth Private Client Group LLC460$50K0.0%+187.5%0.000%
5/13/2026 Signature Equity Partners LLC1,994$219K0.1%-18.1%0.001%
5/13/2026 NewEdge Wealth LLC7,348$806K0.0%+180.2%0.002%
5/13/2026 Arvest Bank Trust Division3,521$386K0.0%N/A0.001%
5/13/2026 Petra Financial Advisors Inc.6,830$749K0.5%-1.3%0.002%
5/12/2026 Cascade Wealth Advisors Inc65,644$7.20M2.9%+10.2%0.019%
5/8/2026 PNC Financial Services Group Inc.960,375$105.34M0.1%+4.5%0.282%
5/8/2026 Cura Wealth Advisors LLC6,055$664K0.3%+2.7%0.002%
5/8/2026 Cassaday & Co Wealth Management LLC1,380$151K0.0%N/A0.000%
5/8/2026 JMG Financial Group Ltd.4,836$530K0.0%+31.1%0.001%


VONG Institutional Ownership - Frequently Asked Questions

During the previous two years, 921 institutional investors and hedge funds held shares of Vanguard Russell 1000 Growth ETF. The most heavily invested institutionals were Bank of America Corp DE ($8.35B), Avantax Advisory Services Inc. ($1.11B), Morgan Stanley ($1.05B), Cetera Investment Advisers ($1.04B), LPL Financial LLC ($995.21M), TIAA Trust National Association ($582.44M), and Wells Fargo & Company MN ($514.99M).Learn more on Vanguard Russell 1000 Growth ETF's institutional investors.

Of the 834 institutional investors that purchased Vanguard Russell 1000 Growth ETF's stock in the last 24 months, the following investors and hedge funds have bought the highest volume of shares: Bank of America Corp DE ($42.96M), Raymond James Financial Inc. ($3.86M), LPL Financial LLC ($2.41M), Janney Montgomery Scott LLC ($1.99M), Valpey Financial Services LLC ($1.74M), Jabodon PT Co. ($1.46M), and Castlekeep Investment Advisors LLC ($1.28M).

Institutional investors have bought a total of 60,323,973 shares in the last 24 months. This purchase volume represents approximately $7.01B in transactions.

Of the 327 institutional investors that sold Vanguard Russell 1000 Growth ETF's stock in the last 24 months, the following investors and hedge funds have sold the highest volume of shares: Bank of America Corp DE ($2.63M), Cetera Investment Advisers ($1.04M), Two Sigma Investments LP ($865.60K), Raymond James Financial Inc. ($745.68K), Wealthquest Corp ($720.10K), Commonwealth Equity Services LLC ($358.57K), and UBS Group AG ($256.99K).

Institutional investors have sold a total of 11,209,739 shares in the last 24 months. This volume of shares sold represents approximately $1.34B in transactions.



Institutional ownership data for NASDAQ:VONG is compiled from quarterly 13F filings submitted to the U.S. Securities and Exchange Commission (SEC), with the most recent received on 9/2/2026. New 13F filings are added each quarter as they're published.
From Our Partners